sensor_id;sensor_type;location;lat;lon;timestamp;pressure;altitude;pressure_sealevel;temperature;humidity
34185;BME280;20454;48.100;11.776;2023-01-27T00:00:49;95453.00;;;-0.58;100.00
34185;BME280;20454;48.100;11.776;2023-01-27T00:03:15;95458.72;;;-0.59;100.00
34185;BME280;20454;48.100;11.776;2023-01-27T00:05:43;95466.66;;;-0.58;100.00
34185;BME280;20454;48.100;11.776;2023-01-27T00:08:08;95459.00;;;-0.61;100.00
34185;BME280;20454;48.100;11.776;2023-01-27T00:10:34;95458.72;;;-0.59;100.00
34185;BME280;20454;48.100;11.776;2023-01-27T00:13:00;95463.69;;;-0.56;100.00
34185;BME280;20454;48.100;11.776;2023-01-27T00:15:44;95468.06;;;-0.55;100.00
34185;BME280;20454;48.100;11.776;2023-01-27T00:18:10;95458.22;;;-0.56;100.00
34185;BME280;20454;48.100;11.776;2023-01-27T00:20:36;95464.50;;;-0.56;100.00
34185;BME280;20454;48.100;11.776;2023-01-27T00:23:22;95451.94;;;-0.57;100.00
34185;BME280;20454;48.100;11.776;2023-01-27T00:26:16;95458.22;;;-0.56;100.00
34185;BME280;20454;48.100;11.776;2023-01-27T00:28:43;95447.53;;;-0.58;100.00
34185;BME280;20454;48.100;11.776;2023-01-27T00:31:10;95453.56;;;-0.56;100.00
34185;BME280;20454;48.100;11.776;2023-01-27T00:33:55;95455.81;;;-0.53;100.00
34185;BME280;20454;48.100;11.776;2023-01-27T00:36:29;95442.41;;;-0.54;100.00
34185;BME280;20454;48.100;11.776;2023-01-27T00:38:55;95444.88;;;-0.53;100.00
34185;BME280;20454;48.100;11.776;2023-01-27T00:41:21;95443.56;;;-0.50;100.00
34185;BME280;20454;48.100;11.776;2023-01-27T00:43:52;95436.69;;;-0.53;100.00
34185;BME280;20454;48.100;11.776;2023-01-27T00:46:19;95445.44;;;-0.51;100.00
34185;BME280;20454;48.100;11.776;2023-01-27T00:48:45;95432.81;;;-0.57;100.00
34185;BME280;20454;48.100;11.776;2023-01-27T00:51:12;95444.88;;;-0.53;100.00
34185;BME280;20454;48.100;11.776;2023-01-27T00:53:38;95437.47;;;-0.57;100.00
34185;BME280;20454;48.100;11.776;2023-01-27T00:56:04;95439.66;;;-0.54;100.00
34185;BME280;20454;48.100;11.776;2023-01-27T00:58:30;95445.38;;;-0.56;100.00
34185;BME280;20454;48.100;11.776;2023-01-27T01:00:57;95447.06;;;-0.55;100.00
34185;BME280;20454;48.100;11.776;2023-01-27T01:03:27;95451.44;;;-0.54;100.00
34185;BME280;20454;48.100;11.776;2023-01-27T01:06:06;95452.25;;;-0.53;100.00
34185;BME280;20454;48.100;11.776;2023-01-27T01:08:33;95454.41;;;-0.55;100.00
34185;BME280;20454;48.100;11.776;2023-01-27T01:10:59;95456.38;;;-0.51;100.00
34185;BME280;20454;48.100;11.776;2023-01-27T01:13:25;95454.72;;;-0.52;100.00
34185;BME280;20454;48.100;11.776;2023-01-27T01:15:53;95456.63;;;-0.52;100.00
34185;BME280;20454;48.100;11.776;2023-01-27T01:18:19;95452.84;;;-0.51;100.00
34185;BME280;20454;48.100;11.776;2023-01-27T01:20:45;95459.34;;;-0.52;100.00
34185;BME280;20454;48.100;11.776;2023-01-27T01:23:12;95462.91;;;-0.52;100.00
34185;BME280;20454;48.100;11.776;2023-01-27T01:25:38;95472.50;;;-0.49;100.00
34185;BME280;20454;48.100;11.776;2023-01-27T01:28:04;95463.47;;;-0.50;100.00
34185;BME280;20454;48.100;11.776;2023-01-27T01:30:32;95469.25;;;-0.46;100.00
34185;BME280;20454;48.100;11.776;2023-01-27T01:32:59;95466.28;;;-0.45;100.00
34185;BME280;20454;48.100;11.776;2023-01-27T01:35:24;95454.50;;;-0.45;100.00
34185;BME280;20454;48.100;11.776;2023-01-27T01:37:53;95462.72;;;-0.45;100.00
34185;BME280;20454;48.100;11.776;2023-01-27T01:40:19;95457.00;;;-0.44;100.00
34185;BME280;20454;48.100;11.776;2023-01-27T01:48:04;95448.00;;;-0.44;100.00
34185;BME280;20454;48.100;11.776;2023-01-27T01:50:31;95439.81;;;-0.44;100.00
34185;BME280;20454;48.100;11.776;2023-01-27T01:52:58;95432.03;;;-0.52;100.00
34185;BME280;20454;48.100;11.776;2023-01-27T01:55:26;95426.56;;;-0.52;100.00
34185;BME280;20454;48.100;11.776;2023-01-27T01:57:52;95433.72;;;-0.51;100.00
34185;BME280;20454;48.100;11.776;2023-01-27T02:00:18;95439.97;;;-0.51;100.00
34185;BME280;20454;48.100;11.776;2023-01-27T02:02:44;95457.22;;;-0.50;100.00
34185;BME280;20454;48.100;11.776;2023-01-27T02:05:15;95447.94;;;-0.49;100.00
34185;BME280;20454;48.100;11.776;2023-01-27T02:08:07;95435.06;;;-0.49;100.00
34185;BME280;20454;48.100;11.776;2023-01-27T02:10:33;95425.75;;;-0.53;100.00
34185;BME280;20454;48.100;11.776;2023-01-27T02:12:59;95425.75;;;-0.53;100.00
34185;BME280;20454;48.100;11.776;2023-01-27T02:15:25;95431.22;;;-0.53;100.00
34185;BME280;20454;48.100;11.776;2023-01-27T02:17:51;95431.53;;;-0.49;100.00
34185;BME280;20454;48.100;11.776;2023-01-27T02:20:51;95433.97;;;-0.53;100.00
34185;BME280;20454;48.100;11.776;2023-01-27T02:23:47;95440.50;;;-0.54;100.00
34185;BME280;20454;48.100;11.776;2023-01-27T02:26:18;95436.69;;;-0.53;100.00
34185;BME280;20454;48.100;11.776;2023-01-27T02:28:54;95441.91;;;-0.51;100.00
34185;BME280;20454;48.100;11.776;2023-01-27T02:31:20;95437.50;;;-0.52;100.00
34185;BME280;20454;48.100;11.776;2023-01-27T02:33:46;95436.16;;;-0.50;100.00
34185;BME280;20454;48.100;11.776;2023-01-27T02:36:13;95431.78;;;-0.51;100.00
34185;BME280;20454;48.100;11.776;2023-01-27T02:38:46;95433.19;;;-0.48;100.00
34185;BME280;20454;48.100;11.776;2023-01-27T02:41:31;95439.50;;;-0.48;100.00
34185;BME280;20454;48.100;11.776;2023-01-27T02:43:58;95430.97;;;-0.51;100.00
34185;BME280;20454;48.100;11.776;2023-01-27T02:46:24;95430.47;;;-0.48;100.00
34185;BME280;20454;48.100;11.776;2023-01-27T02:48:50;95423.09;;;-0.48;100.00
34185;BME280;20454;48.100;11.776;2023-01-27T02:51:15;95429.06;;;-0.51;100.00
34185;BME280;20454;48.100;11.776;2023-01-27T02:53:41;95433.72;;;-0.51;100.00
34185;BME280;20454;48.100;11.776;2023-01-27T02:56:07;95435.06;;;-0.49;100.00
34185;BME280;20454;48.100;11.776;2023-01-27T02:58:33;95427.72;;;-0.48;100.00
34185;BME280;20454;48.100;11.776;2023-01-27T05:31:19;95439.50;;;-0.48;100.00
34185;BME280;20454;48.100;11.776;2023-01-27T05:33:46;95436.78;;;-0.43;100.00
34185;BME280;20454;48.100;11.776;2023-01-27T05:36:14;95446.16;;;-0.39;100.00
34185;BME280;20454;48.100;11.776;2023-01-27T05:38:40;95455.97;;;-0.38;100.00
34185;BME280;20454;48.100;11.776;2023-01-27T05:41:07;95445.59;;;-0.41;100.00
34185;BME280;20454;48.100;11.776;2023-01-27T05:43:35;95447.78;;;-0.38;100.00
34185;BME280;20454;48.100;11.776;2023-01-27T07:21:54;95479.03;;;-0.29;100.00
34185;BME280;20454;48.100;11.776;2023-01-27T07:24:19;95485.97;;;-0.21;100.00
34185;BME280;20454;48.100;11.776;2023-01-27T07:26:45;95493.59;;;-0.23;100.00
34185;BME280;20454;48.100;11.776;2023-01-27T07:29:12;95492.44;;;-0.27;100.00
34185;BME280;20454;48.100;11.776;2023-01-27T07:31:38;95494.66;;;-0.24;100.00
34185;BME280;20454;48.100;11.776;2023-01-27T07:34:04;95499.06;;;-0.23;100.00
34185;BME280;20454;48.100;11.776;2023-01-27T07:36:29;95501.81;;;-0.23;100.00
34185;BME280;20454;48.100;11.776;2023-01-27T07:38:55;95488.63;;;-0.26;100.00
34185;BME280;20454;48.100;11.776;2023-01-27T07:41:21;95500.72;;;-0.22;100.00
34185;BME280;20454;48.100;11.776;2023-01-27T07:43:47;95499.09;;;-0.18;100.00
34185;BME280;20454;48.100;11.776;2023-01-27T07:46:13;95497.69;;;-0.21;100.00
34185;BME280;20454;48.100;11.776;2023-01-27T07:48:39;95510.63;;;-0.16;100.00
34185;BME280;20454;48.100;11.776;2023-01-27T07:51:04;95506.75;;;-0.20;100.00
34185;BME280;20454;48.100;11.776;2023-01-27T07:53:30;95516.66;;;-0.14;100.00
34185;BME280;20454;48.100;11.776;2023-01-27T07:55:58;95499.09;;;-0.18;100.00
34185;BME280;20454;48.100;11.776;2023-01-27T07:58:24;95513.38;;;-0.16;100.00
34185;BME280;20454;48.100;11.776;2023-01-27T08:00:50;95507.63;;;-0.15;100.00
34185;BME280;20454;48.100;11.776;2023-01-27T08:03:21;95511.50;;;-0.11;100.00
34185;BME280;20454;48.100;11.776;2023-01-27T08:05:47;95507.69;;;-0.10;100.00
34185;BME280;20454;48.100;11.776;2023-01-27T08:08:12;95505.25;;;-0.07;100.00
34185;BME280;20454;48.100;11.776;2023-01-27T08:10:41;95514.94;;;0.01;100.00
34185;BME280;20454;48.100;11.776;2023-01-27T08:13:12;95512.19;;;0.01;100.00
34185;BME280;20454;48.100;11.776;2023-01-27T08:15:37;95518.28;;;0.08;100.00
34185;BME280;20454;48.100;11.776;2023-01-27T08:18:03;95510.09;;;0.08;100.00
34185;BME280;20454;48.100;11.776;2023-01-27T08:20:29;95507.34;;;0.08;100.00
34185;BME280;20454;48.100;11.776;2023-01-27T08:22:55;95518.28;;;0.08;100.00
34185;BME280;20454;48.100;11.776;2023-01-27T08:25:20;95522.09;;;0.07;100.00
34185;BME280;20454;48.100;11.776;2023-01-27T08:27:53;95521.81;;;0.08;100.00
34185;BME280;20454;48.100;11.776;2023-01-27T08:30:20;95524.06;;;0.11;100.00
34185;BME280;20454;48.100;11.776;2023-01-27T08:32:46;95527.06;;;0.10;100.00
34185;BME280;20454;48.100;11.776;2023-01-27T08:35:12;95524.84;;;0.07;100.00
34185;BME280;20454;48.100;11.776;2023-01-27T08:37:38;95532.50;;;0.10;100.00
34185;BME280;20454;48.100;11.776;2023-01-27T08:40:03;95526.19;;;0.04;100.00
34185;BME280;20454;48.100;11.776;2023-01-27T08:42:29;95531.38;;;0.06;100.00
34185;BME280;20454;48.100;11.776;2023-01-27T08:44:55;95532.44;;;0.05;100.00
34185;BME280;20454;48.100;11.776;2023-01-27T08:47:20;95540.16;;;0.08;100.00
34185;BME280;20454;48.100;11.776;2023-01-27T08:49:46;95548.38;;;0.08;100.00
34185;BME280;20454;48.100;11.776;2023-01-27T08:52:12;95548.59;;;0.06;100.00
34185;BME280;20454;48.100;11.776;2023-01-27T08:54:38;95553.00;;;0.07;100.00
34185;BME280;20454;48.100;11.776;2023-01-27T08:57:03;95547.78;;;0.06;100.00
34185;BME280;20454;48.100;11.776;2023-01-27T08:59:29;95549.94;;;0.04;100.00
34185;BME280;20454;48.100;11.776;2023-01-27T09:01:55;95542.91;;;0.08;100.00
34185;BME280;20454;48.100;11.776;2023-01-27T09:04:21;95539.06;;;0.09;100.00
34185;BME280;20454;48.100;11.776;2023-01-27T09:06:47;95546.50;;;0.13;100.00
34185;BME280;20454;48.100;11.776;2023-01-27T09:09:15;95547.59;;;0.12;100.00
34185;BME280;20454;48.100;11.776;2023-01-27T09:11:42;95546.25;;;0.15;100.00
34185;BME280;20454;48.100;11.776;2023-01-27T09:14:09;95546.56;;;0.18;100.00
34185;BME280;20454;48.100;11.776;2023-01-27T09:16:35;95546.28;;;0.20;100.00
34185;BME280;20454;48.100;11.776;2023-01-27T09:19:00;95544.16;;;0.22;100.00
34185;BME280;20454;48.100;11.776;2023-01-27T09:21:26;95542.22;;;0.22;100.00
34185;BME280;20454;48.100;11.776;2023-01-27T09:23:52;95546.34;;;0.25;100.00
34185;BME280;20454;48.100;11.776;2023-01-27T09:26:17;95547.69;;;0.22;100.00
34185;BME280;20454;48.100;11.776;2023-01-27T09:28:43;95554.81;;;0.23;100.00
34185;BME280;20454;48.100;11.776;2023-01-27T09:31:09;95558.13;;;0.25;100.00
34185;BME280;20454;48.100;11.776;2023-01-27T09:33:35;95549.34;;;0.23;100.00
34185;BME280;20454;48.100;11.776;2023-01-27T09:36:12;95554.00;;;0.23;100.00
34185;BME280;20454;48.100;11.776;2023-01-27T09:38:58;95560.88;;;0.25;100.00
34185;BME280;20454;48.100;11.776;2023-01-27T09:44:21;95569.94;;;0.31;100.00
34185;BME280;20454;48.100;11.776;2023-01-27T09:57:45;95567.44;;;0.29;100.00
34185;BME280;20454;48.100;11.776;2023-01-27T10:06:12;95574.84;;;0.29;100.00
34185;BME280;20454;48.100;11.776;2023-01-27T10:12:41;95578.94;;;0.26;100.00
34185;BME280;20454;48.100;11.776;2023-01-27T10:14:50;95566.03;;;0.22;100.00
34185;BME280;20454;48.100;11.776;2023-01-27T10:17:26;95570.66;;;0.21;100.00
34185;BME280;20454;48.100;11.776;2023-01-27T10:23:02;95567.91;;;0.21;100.00
34185;BME280;20454;48.100;11.776;2023-01-27T10:25:41;95574.47;;;0.20;100.00
34185;BME280;20454;48.100;11.776;2023-01-27T10:28:14;95564.31;;;0.16;100.00
34185;BME280;20454;48.100;11.776;2023-01-27T10:30:48;95571.19;;;0.18;100.00
34185;BME280;20454;48.100;11.776;2023-01-27T10:33:20;95567.03;;;0.16;100.00
34185;BME280;20454;48.100;11.776;2023-01-27T10:35:52;95583.53;;;0.21;100.00
34185;BME280;20454;48.100;11.776;2023-01-27T10:49:11;95566.66;;;0.29;100.00
34185;BME280;20454;48.100;11.776;2023-01-27T10:51:56;95566.66;;;0.29;100.00
34185;BME280;20454;48.100;11.776;2023-01-27T10:55:14;95578.47;;;0.34;100.00
34185;BME280;20454;48.100;11.776;2023-01-27T10:59:53;95576.09;;;0.43;100.00
34185;BME280;20454;48.100;11.776;2023-01-27T11:05:08;95575.31;;;0.47;100.00
34185;BME280;20454;48.100;11.776;2023-01-27T11:07:51;95578.94;;;0.53;100.00
34185;BME280;20454;48.100;11.776;2023-01-27T11:10:18;95571.09;;;0.61;100.00
34185;BME280;20454;48.100;11.776;2023-01-27T11:12:47;95566.38;;;0.57;98.50
34185;BME280;20454;48.100;11.776;2023-01-27T11:15:31;95564.78;;;0.61;98.37
34185;BME280;20454;48.100;11.776;2023-01-27T11:18:05;95571.88;;;0.62;97.68
34185;BME280;20454;48.100;11.776;2023-01-27T11:20:39;95570.78;;;0.58;98.09
34185;BME280;20454;48.100;11.776;2023-01-27T11:23:18;95567.19;;;0.57;98.33
34185;BME280;20454;48.100;11.776;2023-01-27T11:31:53;95565.81;;;0.55;99.32
34185;BME280;20454;48.100;11.776;2023-01-27T11:36:50;95561.69;;;0.52;99.59
34185;BME280;20454;48.100;11.776;2023-01-27T11:39:16;95557.59;;;0.55;99.33
34185;BME280;20454;48.100;11.776;2023-01-27T11:41:46;95563.97;;;0.60;99.15
34185;BME280;20454;48.100;11.776;2023-01-27T11:44:28;95560.13;;;0.61;98.87
34185;BME280;20454;48.100;11.776;2023-01-27T11:46:56;95562.94;;;0.66;97.98
34185;BME280;20454;48.100;11.776;2023-01-27T11:49:29;95558.00;;;0.68;97.52
34185;BME280;20454;48.100;11.776;2023-01-27T11:55:14;95560.50;;;0.70;98.22
34185;BME280;20454;48.100;11.776;2023-01-27T11:57:42;95554.75;;;0.71;97.76
34185;BME280;20454;48.100;11.776;2023-01-27T12:02:48;95543.53;;;0.73;97.80
34185;BME280;20454;48.100;11.776;2023-01-27T12:05:31;95547.13;;;0.78;97.94
34185;BME280;20454;48.100;11.776;2023-01-27T12:08:00;95550.47;;;0.80;97.73
34185;BME280;20454;48.100;11.776;2023-01-27T12:10:30;95555.41;;;0.83;96.23
34185;BME280;20454;48.100;11.776;2023-01-27T12:13:17;95554.00;;;0.81;95.34
34185;BME280;20454;48.100;11.776;2023-01-27T12:15:51;95544.69;;;0.77;95.16
34185;BME280;20454;48.100;11.776;2023-01-27T12:18:18;95546.59;;;0.76;95.44
34185;BME280;20454;48.100;11.776;2023-01-27T12:20:45;95542.50;;;0.79;95.20
34185;BME280;20454;48.100;11.776;2023-01-27T12:23:45;95548.59;;;0.86;94.88
34185;BME280;20454;48.100;11.776;2023-01-27T12:26:07;95552.72;;;0.88;95.07
34185;BME280;20454;48.100;11.776;2023-01-27T12:28:48;95555.75;;;0.92;95.36
34185;BME280;20454;48.100;11.776;2023-01-27T12:34:06;95510.94;;;0.66;95.08
34185;BME280;20454;48.100;11.776;2023-01-27T14:31:10;95557.88;;;0.85;93.22
34185;BME280;20454;48.100;11.776;2023-01-27T14:36:30;95554.25;;;0.79;94.20
34185;BME280;20454;48.100;11.776;2023-01-27T14:41:44;95549.88;;;0.78;94.66
34185;BME280;20454;48.100;11.776;2023-01-27T14:44:40;95558.38;;;0.77;93.89
34185;BME280;20454;48.100;11.776;2023-01-27T16:59:51;95607.53;;;0.19;97.18
34185;BME280;20454;48.100;11.776;2023-01-27T17:02:22;95619.38;;;0.24;97.32
34185;BME280;20454;48.100;11.776;2023-01-27T17:04:51;95621.03;;;0.25;97.64
34185;BME280;20454;48.100;11.776;2023-01-27T17:07:18;95635.84;;;0.29;97.62
34185;BME280;20454;48.100;11.776;2023-01-27T17:09:55;95628.97;;;0.27;97.73
34185;BME280;20454;48.100;11.776;2023-01-27T17:12:33;95630.56;;;0.23;97.71
34185;BME280;20454;48.100;11.776;2023-01-27T17:15:08;95637.44;;;0.25;97.81
34185;BME280;20454;48.100;11.776;2023-01-27T17:17:38;95632.22;;;0.24;97.92
34185;BME280;20454;48.100;11.776;2023-01-27T17:20:05;95637.44;;;0.25;98.29
34185;BME280;20454;48.100;11.776;2023-01-27T17:22:41;95639.66;;;0.28;98.37
34185;BME280;20454;48.100;11.776;2023-01-27T17:25:36;95641.59;;;0.28;97.93
34185;BME280;20454;48.100;11.776;2023-01-27T17:28:06;95639.91;;;0.27;97.82
34185;BME280;20454;48.100;11.776;2023-01-27T17:30:38;95639.09;;;0.26;98.00
34185;BME280;20454;48.100;11.776;2023-01-27T17:33:12;95646.22;;;0.27;98.46
34185;BME280;20454;48.100;11.776;2023-01-27T17:35:39;95645.91;;;0.24;98.50
34185;BME280;20454;48.100;11.776;2023-01-27T17:38:22;95644.75;;;0.20;98.53
34185;BME280;20454;48.100;11.776;2023-01-27T17:40:52;95661.22;;;0.25;98.17
34185;BME280;20454;48.100;11.776;2023-01-27T17:45:48;95658.81;;;0.28;98.25
34185;BME280;20454;48.100;11.776;2023-01-27T17:48:14;95667.25;;;0.27;98.59
34185;BME280;20454;48.100;11.776;2023-01-27T19:26:33;95677.88;;;0.02;100.00
34185;BME280;20454;48.100;11.776;2023-01-27T19:29:00;95698.31;;;0.16;100.00
34185;BME280;20454;48.100;11.776;2023-01-27T19:31:26;95688.69;;;0.13;100.00
34185;BME280;20454;48.100;11.776;2023-01-27T19:33:51;95694.72;;;0.15;100.00
34185;BME280;20454;48.100;11.776;2023-01-27T19:38:56;95697.75;;;0.14;100.00
34185;BME280;20454;48.100;11.776;2023-01-27T19:41:25;95694.50;;;0.17;100.00
34185;BME280;20454;48.100;11.776;2023-01-27T19:43:51;95695.34;;;0.17;100.00
34185;BME280;20454;48.100;11.776;2023-01-27T19:46:19;95700.47;;;0.14;100.00
34185;BME280;20454;48.100;11.776;2023-01-27T19:48:45;95653.81;;;-0.17;100.00
34185;BME280;20454;48.100;11.776;2023-01-27T19:51:13;95685.75;;;-0.02;100.00
34185;BME280;20454;48.100;11.776;2023-01-27T19:53:54;95654.88;;;-0.18;100.00
34185;BME280;20454;48.100;11.776;2023-01-27T19:56:23;95659.59;;;-0.14;100.00
34185;BME280;20454;48.100;11.776;2023-01-27T19:58:53;95674.75;;;-0.07;100.00
34185;BME280;20454;48.100;11.776;2023-01-27T20:01:21;95693.19;;;0.03;100.00
34185;BME280;20454;48.100;11.776;2023-01-27T20:03:53;95669.81;;;-0.09;100.00
34185;BME280;20454;48.100;11.776;2023-01-27T20:06:21;95714.97;;;0.14;100.00
34185;BME280;20454;48.100;11.776;2023-01-27T20:08:50;95679.69;;;-0.04;100.00
34185;BME280;20454;48.100;11.776;2023-01-27T20:13:57;95723.16;;;0.14;100.00
34185;BME280;20454;48.100;11.776;2023-01-27T20:16:23;95710.81;;;0.12;100.00
34185;BME280;20454;48.100;11.776;2023-01-27T20:18:50;95718.22;;;0.11;100.00
34185;BME280;20454;48.100;11.776;2023-01-27T20:21:16;95706.13;;;0.07;100.00
34185;BME280;20454;48.100;11.776;2023-01-27T20:23:42;95711.09;;;0.10;100.00
34185;BME280;20454;48.100;11.776;2023-01-27T20:26:11;95714.31;;;0.07;100.00
34185;BME280;20454;48.100;11.776;2023-01-27T20:28:37;95713.00;;;0.10;100.00
34185;BME280;20454;48.100;11.776;2023-01-27T20:31:03;95722.59;;;0.12;100.00
34185;BME280;20454;48.100;11.776;2023-01-27T20:33:28;95719.03;;;0.12;100.00
34185;BME280;20454;48.100;11.776;2023-01-27T20:35:54;95719.88;;;0.12;100.00
34185;BME280;20454;48.100;11.776;2023-01-27T20:38:20;95717.91;;;0.08;100.00
34185;BME280;20454;48.100;11.776;2023-01-27T20:40:45;95722.53;;;0.07;100.00
34185;BME280;20454;48.100;11.776;2023-01-27T20:43:11;95722.03;;;0.10;100.00
34185;BME280;20454;48.100;11.776;2023-01-27T20:45:37;95728.31;;;0.11;100.00
34185;BME280;20454;48.100;11.776;2023-01-27T20:48:03;95717.56;;;0.04;100.00
34185;BME280;20454;48.100;11.776;2023-01-27T20:50:29;95719.47;;;0.04;100.00
34185;BME280;20454;48.100;11.776;2023-01-27T20:52:55;95731.25;;;0.04;100.00
34185;BME280;20454;48.100;11.776;2023-01-27T20:55:20;95737.59;;;0.10;100.00
34185;BME280;20454;48.100;11.776;2023-01-27T20:57:47;95734.28;;;0.08;100.00
34185;BME280;20454;48.100;11.776;2023-01-27T21:00:17;95741.09;;;0.05;100.00
34185;BME280;20454;48.100;11.776;2023-01-27T21:02:44;95739.44;;;0.04;100.00
34185;BME280;20454;48.100;11.776;2023-01-27T21:05:10;95725.94;;;-0.02;100.00
34185;BME280;20454;48.100;11.776;2023-01-27T21:07:35;95741.34;;;0.04;100.00
34185;BME280;20454;48.100;11.776;2023-01-27T21:10:01;95736.09;;;0.02;100.00
34185;BME280;20454;48.100;11.776;2023-01-27T21:12:27;95739.44;;;0.04;100.00
34185;BME280;20454;48.100;11.776;2023-01-27T21:14:54;95737.19;;;0.01;100.00
34185;BME280;20454;48.100;11.776;2023-01-27T21:17:20;95743.59;;;0.07;100.00
34185;BME280;20454;48.100;11.776;2023-01-27T21:19:46;95756.19;;;0.08;100.00
34185;BME280;20454;48.100;11.776;2023-01-27T21:22:11;95736.38;;;0.01;100.00
34185;BME280;20454;48.100;11.776;2023-01-27T21:24:37;95738.03;;;0.02;100.00
34185;BME280;20454;48.100;11.776;2023-01-27T21:27:03;95745.16;;;0.03;100.00
34185;BME280;20454;48.100;11.776;2023-01-27T21:29:29;95743.59;;;0.07;100.00
34185;BME280;20454;48.100;11.776;2023-01-27T21:31:55;95737.78;;;0.03;100.00
34185;BME280;20454;48.100;11.776;2023-01-27T21:34:21;95739.13;;;0.01;100.00
34185;BME280;20454;48.100;11.776;2023-01-27T21:36:47;95741.91;;;0.06;100.00
34185;BME280;20454;48.100;11.776;2023-01-27T21:39:13;95737.47;;;0.00;100.00
34185;BME280;20454;48.100;11.776;2023-01-27T21:41:38;95750.63;;;0.03;100.00
34185;BME280;20454;48.100;11.776;2023-01-27T21:44:24;95747.13;;;0.07;100.00
34185;BME280;20454;48.100;11.776;2023-01-27T21:47:10;95753.69;;;0.06;100.00
34185;BME280;20454;48.100;11.776;2023-01-27T21:49:38;95752.28;;;0.04;99.63
34185;BME280;20454;48.100;11.776;2023-01-27T21:52:25;95744.81;;;-0.01;99.46
34185;BME280;20454;48.100;11.776;2023-01-27T21:54:53;95742.41;;;0.03;99.18
34185;BME280;20454;48.100;11.776;2023-01-27T21:57:18;95741.78;;;-0.04;99.09
34185;BME280;20454;48.100;11.776;2023-01-27T21:59:44;95749.47;;;-0.01;99.01
34185;BME280;20454;48.100;11.776;2023-01-27T22:02:11;95744.50;;;-0.04;98.47
34185;BME280;20454;48.100;11.776;2023-01-27T22:04:40;95750.78;;;-0.04;98.64
34185;BME280;20454;48.100;11.776;2023-01-27T22:07:06;95747.47;;;-0.06;98.33
34185;BME280;20454;48.100;11.776;2023-01-27T22:09:35;95744.75;;;-0.06;97.99
34185;BME280;20454;48.100;11.776;2023-01-27T22:12:02;95741.44;;;-0.08;97.72
34185;BME280;20454;48.100;11.776;2023-01-27T22:14:28;95748.56;;;-0.07;97.83
34185;BME280;20454;48.100;11.776;2023-01-27T22:16:54;95740.03;;;-0.10;97.87
34185;BME280;20454;48.100;11.776;2023-01-27T22:19:19;95754.53;;;-0.09;97.14
34185;BME280;20454;48.100;11.776;2023-01-27T22:21:45;95736.66;;;-0.17;97.30
34185;BME280;20454;48.100;11.776;2023-01-27T22:24:11;95741.28;;;-0.17;97.15
34185;BME280;20454;48.100;11.776;2023-01-27T22:26:37;95741.03;;;-0.16;97.34
34185;BME280;20454;48.100;11.776;2023-01-27T22:29:02;95747.91;;;-0.13;97.34
34185;BME280;20454;48.100;11.776;2023-01-27T22:31:28;95741.28;;;-0.17;96.69
34185;BME280;20454;48.100;11.776;2023-01-27T22:33:54;95739.06;;;-0.20;97.42
34185;BME280;20454;48.100;11.776;2023-01-27T22:36:19;95740.22;;;-0.16;97.64
34185;BME280;20454;48.100;11.776;2023-01-27T22:38:45;95737.97;;;-0.19;97.29
34185;BME280;20454;48.100;11.776;2023-01-27T22:41:11;95747.25;;;-0.20;97.42
34185;BME280;20454;48.100;11.776;2023-01-27T22:43:36;95738.47;;;-0.22;97.44
34185;BME280;20454;48.100;11.776;2023-01-27T22:46:02;95735.22;;;-0.19;97.87
34185;BME280;20454;48.100;11.776;2023-01-27T22:48:29;95732.50;;;-0.19;97.71
34185;BME280;20454;48.100;11.776;2023-01-27T22:50:55;95733.34;;;-0.19;97.76
34185;BME280;20454;48.100;11.776;2023-01-27T22:53:21;95736.31;;;-0.20;97.85
34185;BME280;20454;48.100;11.776;2023-01-27T22:55:58;95719.59;;;-0.24;97.97
34185;BME280;20454;48.100;11.776;2023-01-27T22:58:24;95730.28;;;-0.22;98.17
34185;BME280;20454;48.100;11.776;2023-01-27T23:00:51;95736.84;;;-0.23;98.38
34185;BME280;20454;48.100;11.776;2023-01-27T23:03:17;95719.59;;;-0.24;98.75
34185;BME280;20454;48.100;11.776;2023-01-27T23:05:43;95731.09;;;-0.22;98.71
34185;BME280;20454;48.100;11.776;2023-01-27T23:08:08;95731.09;;;-0.22;98.71
34185;BME280;20454;48.100;11.776;2023-01-27T23:10:35;95727.03;;;-0.19;98.94
34185;BME280;20454;48.100;11.776;2023-01-27T23:13:00;95717.94;;;-0.25;99.35
34185;BME280;20454;48.100;11.776;2023-01-27T23:15:26;95725.38;;;-0.20;99.16
34185;BME280;20454;48.100;11.776;2023-01-27T23:17:52;95705.34;;;-0.26;99.46
34185;BME280;20454;48.100;11.776;2023-01-27T23:20:18;95721.00;;;-0.21;99.86
34185;BME280;20454;48.100;11.776;2023-01-27T23:22:44;95731.69;;;-0.20;100.00
34185;BME280;20454;48.100;11.776;2023-01-27T23:25:10;95726.47;;;-0.21;100.00
34185;BME280;20454;48.100;11.776;2023-01-27T23:27:36;95727.28;;;-0.21;100.00
34185;BME280;20454;48.100;11.776;2023-01-27T23:30:03;95719.59;;;-0.24;100.00
34185;BME280;20454;48.100;11.776;2023-01-27T23:32:29;95731.69;;;-0.20;100.00
34185;BME280;20454;48.100;11.776;2023-01-27T23:34:55;95734.66;;;-0.21;100.00
34185;BME280;20454;48.100;11.776;2023-01-27T23:37:20;95729.13;;;-0.26;100.00
34185;BME280;20454;48.100;11.776;2023-01-27T23:39:46;95734.34;;;-0.25;100.00
34185;BME280;20454;48.100;11.776;2023-01-27T23:42:15;95745.03;;;-0.23;100.00
34185;BME280;20454;48.100;11.776;2023-01-27T23:44:40;95743.03;;;-0.28;100.00
34185;BME280;20454;48.100;11.776;2023-01-27T23:47:06;95756.19;;;-0.25;100.00
34185;BME280;20454;48.100;11.776;2023-01-27T23:49:32;95736.41;;;-0.32;100.00
34185;BME280;20454;48.100;11.776;2023-01-27T23:51:57;95739.94;;;-0.31;100.00
34185;BME280;20454;48.100;11.776;2023-01-27T23:54:23;95750.16;;;-0.27;100.00
34185;BME280;20454;48.100;11.776;2023-01-27T23:56:49;95748.75;;;-0.29;100.00
34185;BME280;20454;48.100;11.776;2023-01-27T23:59:14;95742.13;;;-0.33;100.00
